createdAt,value
2018-07-23T00:00:13.612Z,0.00
2018-07-23T00:01:13.787Z,0.00
2018-07-23T00:02:13.967Z,0.00
2018-07-23T00:03:14.140Z,0.00
2018-07-23T00:04:14.311Z,0.00
2018-07-23T00:05:14.498Z,0.00
2018-07-23T00:06:14.677Z,0.00
2018-07-23T00:07:14.851Z,0.00
2018-07-23T00:08:15.032Z,0.00
2018-07-23T00:09:15.205Z,0.00
2018-07-23T00:10:15.386Z,0.00
2018-07-23T00:11:15.557Z,0.00
2018-07-23T00:12:15.735Z,0.00
2018-07-23T00:13:15.908Z,0.00
2018-07-23T00:14:16.088Z,0.00
2018-07-23T00:15:16.270Z,0.00
2018-07-23T00:16:16.452Z,0.00
2018-07-23T00:17:16.628Z,0.00
2018-07-23T00:18:16.804Z,0.00
2018-07-23T00:19:16.977Z,0.00
2018-07-23T00:20:17.156Z,0.00
2018-07-23T00:21:17.333Z,0.00
2018-07-23T00:22:17.514Z,0.00
2018-07-23T00:23:17.691Z,0.00
2018-07-23T00:24:17.863Z,0.00
2018-07-23T00:25:18.039Z,0.00
2018-07-23T00:26:18.213Z,0.00
2018-07-23T00:27:18.386Z,0.00
2018-07-23T00:28:18.566Z,0.00
2018-07-23T00:29:18.748Z,0.00
2018-07-23T00:30:18.924Z,0.00
2018-07-23T00:31:19.089Z,0.00
2018-07-23T00:32:19.264Z,0.00
2018-07-23T00:33:19.448Z,0.00
2018-07-23T00:34:19.622Z,0.00
2018-07-23T00:35:19.805Z,0.00
2018-07-23T00:36:19.978Z,0.00
2018-07-23T00:37:20.154Z,0.00
2018-07-23T00:38:20.335Z,0.00
2018-07-23T00:39:20.513Z,0.00
2018-07-23T00:40:20.701Z,0.00
2018-07-23T00:41:20.885Z,0.00
2018-07-23T00:42:21.056Z,0.00
2018-07-23T00:43:21.228Z,0.00
2018-07-23T00:44:21.400Z,0.00
2018-07-23T00:45:21.576Z,0.00
2018-07-23T00:46:21.748Z,0.00
2018-07-23T00:47:21.928Z,0.00
2018-07-23T00:48:22.103Z,0.00
2018-07-23T00:49:22.284Z,0.00
2018-07-23T00:50:22.465Z,0.00
2018-07-23T00:51:22.638Z,0.00
2018-07-23T00:52:22.813Z,0.00
2018-07-23T00:53:22.986Z,0.00
2018-07-23T00:54:23.168Z,0.00
2018-07-23T00:55:23.347Z,0.00
2018-07-23T00:56:23.531Z,0.00
2018-07-23T00:57:23.700Z,0.00
2018-07-23T00:58:23.877Z,0.00
2018-07-23T00:59:24.058Z,0.00
2018-07-23T01:00:24.236Z,0.00
2018-07-23T01:01:24.412Z,0.00
2018-07-23T01:02:24.589Z,0.00
2018-07-23T01:03:24.774Z,0.00
2018-07-23T01:04:24.941Z,0.00
2018-07-23T01:05:25.112Z,0.00
2018-07-23T01:06:25.285Z,0.00
2018-07-23T01:07:25.463Z,0.00
2018-07-23T01:08:25.633Z,0.00
2018-07-23T01:09:25.808Z,0.00
2018-07-23T01:10:25.987Z,0.00
2018-07-23T01:11:26.158Z,0.00
2018-07-23T01:12:26.334Z,0.00
2018-07-23T01:13:26.510Z,0.00
2018-07-23T01:14:26.686Z,0.00
2018-07-23T01:15:26.857Z,0.00
2018-07-23T01:16:27.031Z,0.00
2018-07-23T01:17:27.205Z,0.00
2018-07-23T01:18:27.385Z,0.00
2018-07-23T01:19:27.564Z,0.00
2018-07-23T01:20:27.742Z,0.00
2018-07-23T01:21:31.644Z,0.00
2018-07-23T01:22:30.395Z,0.00
2018-07-23T01:23:28.459Z,0.00
2018-07-23T01:24:29.706Z,0.00
2018-07-23T01:25:28.682Z,0.00
2018-07-23T01:26:28.730Z,0.00
2018-07-23T01:27:30.079Z,0.00
2018-07-23T01:28:29.672Z,0.00
2018-07-23T01:29:29.641Z,0.00
2018-07-23T01:30:30.928Z,0.00
2018-07-23T01:31:29.520Z,0.00
2018-07-23T01:32:29.704Z,0.00
2018-07-23T01:33:29.880Z,0.00
2018-07-23T01:34:35.400Z,0.00
2018-07-23T01:35:30.232Z,0.00
2018-07-23T01:36:30.407Z,0.00
2018-07-23T01:37:30.589Z,0.00
2018-07-23T01:38:30.760Z,0.00
2018-07-23T01:39:30.937Z,0.00
2018-07-23T01:40:31.124Z,0.00
2018-07-23T01:41:31.310Z,0.00
2018-07-23T01:42:31.477Z,0.00
2018-07-23T01:43:31.650Z,0.00
2018-07-23T01:44:31.833Z,0.00
2018-07-23T01:45:32.008Z,0.00
2018-07-23T01:46:32.183Z,0.00
2018-07-23T01:47:32.355Z,0.00
2018-07-23T01:48:32.532Z,0.00
2018-07-23T01:49:32.714Z,0.00
2018-07-23T01:50:32.895Z,0.00
2018-07-23T01:51:33.069Z,0.00
2018-07-23T01:52:33.253Z,0.00
2018-07-23T01:53:33.426Z,0.00
2018-07-23T01:54:33.599Z,0.00
2018-07-23T01:55:33.777Z,0.00
2018-07-23T01:56:33.958Z,0.00
2018-07-23T01:57:34.129Z,0.00
2018-07-23T01:58:34.306Z,0.00
2018-07-23T01:59:34.485Z,0.00
2018-07-23T02:00:34.661Z,0.00
2018-07-23T02:01:34.840Z,0.00
2018-07-23T02:02:35.019Z,0.00
2018-07-23T02:03:35.190Z,0.00
2018-07-23T02:04:35.367Z,0.00
2018-07-23T02:05:35.540Z,0.00
2018-07-23T02:06:35.717Z,0.00
2018-07-23T02:07:35.899Z,0.00
2018-07-23T02:08:36.074Z,0.00
2018-07-23T02:09:36.245Z,0.00
2018-07-23T02:10:36.426Z,0.00
2018-07-23T02:11:36.605Z,0.00
2018-07-23T02:12:36.783Z,0.00
2018-07-23T02:13:36.958Z,0.00
2018-07-23T02:14:37.139Z,0.00
2018-07-23T02:15:37.310Z,0.00
2018-07-23T02:16:37.488Z,0.00
2018-07-23T02:17:37.662Z,0.00
2018-07-23T02:18:37.840Z,0.00
2018-07-23T02:19:38.029Z,0.00
2018-07-23T02:20:38.205Z,0.00
2018-07-23T02:21:38.375Z,0.00
2018-07-23T02:22:38.557Z,0.00
2018-07-23T02:23:38.734Z,0.00
2018-07-23T02:24:38.911Z,0.00
2018-07-23T02:25:39.087Z,0.00
2018-07-23T02:26:39.260Z,0.00
2018-07-23T02:27:39.444Z,0.00
2018-07-23T02:28:39.618Z,0.00
2018-07-23T02:29:39.797Z,0.00
2018-07-23T02:30:39.976Z,0.00
2018-07-23T02:31:40.152Z,0.00
2018-07-23T02:32:40.321Z,0.00
2018-07-23T02:33:40.507Z,0.00
2018-07-23T02:34:40.690Z,0.00
2018-07-23T02:35:40.865Z,0.00
2018-07-23T02:36:41.041Z,0.00
2018-07-23T02:37:41.219Z,0.00
2018-07-23T02:38:41.394Z,0.00
2018-07-23T02:39:41.573Z,0.00
2018-07-23T02:40:41.745Z,0.00
2018-07-23T02:41:41.914Z,0.00
2018-07-23T02:42:42.085Z,0.00
2018-07-23T02:43:42.263Z,0.00
2018-07-23T02:44:42.448Z,0.00
2018-07-23T02:45:42.631Z,0.00
2018-07-23T02:46:42.802Z,0.00
2018-07-23T02:47:42.973Z,0.00
2018-07-23T02:48:43.147Z,0.00
2018-07-23T02:49:43.325Z,0.00
2018-07-23T02:50:43.505Z,0.00
2018-07-23T02:51:43.689Z,0.00
2018-07-23T02:52:43.861Z,0.00
2018-07-23T02:53:44.035Z,0.00
2018-07-23T02:54:44.205Z,0.00
2018-07-23T02:55:44.385Z,0.00
2018-07-23T02:56:44.565Z,0.00
2018-07-23T02:57:44.742Z,0.00
2018-07-23T02:58:44.922Z,0.00
2018-07-23T02:59:45.163Z,0.00
2018-07-23T03:00:45.279Z,0.00
2018-07-23T03:01:45.471Z,0.00
2018-07-23T03:02:45.641Z,0.00
2018-07-23T03:03:45.833Z,0.00
2018-07-23T03:04:46.020Z,0.00
2018-07-23T03:05:46.193Z,0.00
2018-07-23T03:06:46.374Z,0.00
2018-07-23T03:07:46.547Z,0.00
2018-07-23T03:08:46.725Z,0.00
2018-07-23T03:09:46.900Z,0.00
2018-07-23T03:10:47.081Z,0.00
2018-07-23T03:11:47.258Z,0.00
2018-07-23T03:12:47.429Z,0.00
2018-07-23T03:13:47.605Z,0.00
2018-07-23T03:14:47.776Z,0.00
2018-07-23T03:15:47.955Z,0.00
2018-07-23T03:16:48.132Z,0.00
2018-07-23T03:17:48.311Z,0.00
2018-07-23T03:18:48.481Z,0.00
2018-07-23T03:19:48.658Z,0.00
2018-07-23T03:20:48.841Z,0.00
2018-07-23T03:21:49.041Z,0.00
2018-07-23T03:22:49.189Z,0.00
2018-07-23T03:23:49.364Z,0.00
2018-07-23T03:24:49.542Z,0.00
2018-07-23T03:25:49.717Z,0.00
2018-07-23T03:26:49.890Z,0.00
2018-07-23T03:27:50.066Z,0.00
2018-07-23T03:28:50.248Z,0.00
2018-07-23T03:29:50.420Z,0.00
2018-07-23T03:30:50.591Z,0.00
2018-07-23T03:31:50.771Z,0.00
2018-07-23T03:32:50.939Z,0.00
2018-07-23T03:33:51.126Z,0.00
2018-07-23T03:34:51.299Z,0.00
2018-07-23T03:35:51.478Z,0.00
2018-07-23T03:36:51.652Z,0.00
2018-07-23T03:37:51.825Z,0.00
2018-07-23T03:38:52.005Z,0.00
2018-07-23T03:39:52.178Z,0.00
2018-07-23T03:40:52.360Z,0.00
2018-07-23T03:41:52.537Z,0.00
2018-07-23T03:42:52.716Z,5.63
2018-07-23T03:43:52.918Z,5.63
2018-07-23T03:44:53.102Z,5.63
2018-07-23T03:45:53.281Z,5.63
2018-07-23T03:46:53.455Z,5.63
2018-07-23T03:47:53.640Z,5.63
2018-07-23T03:48:53.820Z,5.63
2018-07-23T03:49:53.993Z,5.63
2018-07-23T03:50:54.175Z,5.63
2018-07-23T03:51:54.352Z,5.63
2018-07-23T03:52:54.531Z,5.63
2018-07-23T03:53:54.706Z,11.25
2018-07-23T03:54:54.877Z,11.25
2018-07-23T03:55:55.060Z,11.25
2018-07-23T03:56:55.244Z,11.25
2018-07-23T03:57:55.431Z,11.25
2018-07-23T03:58:55.600Z,11.25
2018-07-23T03:59:55.773Z,11.25
2018-07-23T04:00:55.945Z,11.25
2018-07-23T04:01:56.122Z,16.88
2018-07-23T04:02:56.305Z,16.88
2018-07-23T04:03:56.481Z,16.88
2018-07-23T04:04:56.661Z,16.88
2018-07-23T04:05:56.837Z,16.88
2018-07-23T04:06:57.012Z,16.88
2018-07-23T04:07:57.187Z,16.88
2018-07-23T04:08:59.771Z,22.50
2018-07-23T04:09:58.673Z,22.50
2018-07-23T04:11:00.010Z,22.50
2018-07-23T04:12:00.533Z,22.50
2018-07-23T04:12:59.851Z,28.13
2018-07-23T04:13:58.260Z,28.13
2018-07-23T04:15:01.551Z,28.13
2018-07-23T04:16:00.470Z,28.13
2018-07-23T04:16:59.939Z,28.13
2018-07-23T04:17:59.998Z,28.13
2018-07-23T04:18:59.283Z,33.75
2018-07-23T04:19:59.445Z,33.75
2018-07-23T04:20:59.618Z,33.75
2018-07-23T04:21:59.771Z,33.75
2018-07-23T04:22:59.899Z,39.38
2018-07-23T04:23:59.915Z,39.38
2018-07-23T04:25:00.247Z,39.38
2018-07-23T04:26:00.409Z,39.38
2018-07-23T04:27:00.608Z,39.38
2018-07-23T04:28:00.715Z,45.00
2018-07-23T04:29:00.859Z,45.00
2018-07-23T04:30:00.978Z,45.00
2018-07-23T04:31:01.142Z,45.00
2018-07-23T04:32:01.198Z,50.63
2018-07-23T04:33:01.312Z,50.63
2018-07-23T04:34:01.561Z,50.63
2018-07-23T04:35:01.775Z,50.63
2018-07-23T04:36:01.914Z,56.25
2018-07-23T04:37:02.169Z,56.25
2018-07-23T04:38:02.390Z,56.25
2018-07-23T04:39:02.373Z,56.25
2018-07-23T04:40:02.722Z,61.88
2018-07-23T04:41:04.754Z,61.88
2018-07-23T04:42:04.882Z,61.88
2018-07-23T04:43:03.094Z,67.50
2018-07-23T04:44:03.163Z,67.50
2018-07-23T04:45:03.142Z,67.50
2018-07-23T04:46:03.318Z,67.50
2018-07-23T04:47:03.496Z,73.13
2018-07-23T04:48:03.680Z,73.13
2018-07-23T04:49:03.863Z,73.13
2018-07-23T04:50:04.044Z,73.13
2018-07-23T04:51:04.219Z,78.75
2018-07-23T04:52:04.535Z,78.75
2018-07-23T04:53:04.589Z,78.75
2018-07-23T04:54:04.772Z,78.75
2018-07-23T04:55:04.963Z,84.38
2018-07-23T04:56:05.137Z,84.38
2018-07-23T04:57:05.349Z,84.38
2018-07-23T04:58:05.493Z,90.00
2018-07-23T04:59:05.705Z,90.00
2018-07-23T05:00:05.867Z,95.63
2018-07-23T05:01:06.053Z,95.63
2018-07-23T05:02:06.232Z,101.25
2018-07-23T05:03:06.408Z,101.25
2018-07-23T05:04:06.598Z,106.88
2018-07-23T05:05:07.349Z,101.25
2018-07-23T05:06:07.524Z,106.88
2018-07-23T05:07:07.060Z,106.88
2018-07-23T05:08:07.240Z,112.50
2018-07-23T05:09:07.416Z,112.50
2018-07-23T05:10:07.594Z,112.50
2018-07-23T05:11:07.775Z,118.13
2018-07-23T05:12:07.944Z,118.13
2018-07-23T05:13:08.122Z,118.13
2018-07-23T05:14:08.295Z,118.13
2018-07-23T05:15:08.479Z,118.13
2018-07-23T05:16:08.668Z,118.13
2018-07-23T05:17:08.857Z,123.75
2018-07-23T05:18:09.062Z,123.75
2018-07-23T05:19:09.234Z,123.75
2018-07-23T05:20:09.413Z,123.75
2018-07-23T05:21:09.611Z,123.75
2018-07-23T05:22:09.791Z,129.38
2018-07-23T05:23:09.963Z,129.38
2018-07-23T05:24:10.195Z,129.38
2018-07-23T05:25:10.249Z,129.38
2018-07-23T05:26:11.650Z,135.00
2018-07-23T05:27:11.751Z,135.00
2018-07-23T05:28:12.506Z,135.00
2018-07-23T05:29:11.024Z,140.63
2018-07-23T05:30:11.068Z,140.63
2018-07-23T05:31:11.244Z,140.63
2018-07-23T05:32:11.413Z,146.25
2018-07-23T05:33:11.597Z,146.25
2018-07-23T05:34:11.975Z,146.25
2018-07-23T05:35:11.920Z,151.88
2018-07-23T05:36:12.100Z,151.88
2018-07-23T05:37:12.304Z,151.88
2018-07-23T05:38:12.514Z,157.50
2018-07-23T05:39:12.642Z,157.50
2018-07-23T05:40:12.826Z,157.50
2018-07-23T05:41:12.995Z,157.50
2018-07-23T05:42:13.178Z,163.13
2018-07-23T05:43:13.365Z,163.13
2018-07-23T05:44:13.542Z,168.75
2018-07-23T05:45:13.719Z,168.75
2018-07-23T05:46:13.907Z,168.75
2018-07-23T05:47:15.083Z,174.38
2018-07-23T05:48:14.276Z,174.38
2018-07-23T05:49:14.452Z,174.38
2018-07-23T05:50:14.629Z,180.00
2018-07-23T05:51:14.814Z,180.00
2018-07-23T05:52:14.993Z,180.00
2018-07-23T05:53:15.180Z,185.63
2018-07-23T05:54:18.105Z,185.63
2018-07-23T05:55:15.545Z,185.63
2018-07-23T05:56:15.718Z,191.25
2018-07-23T05:57:15.897Z,196.88
2018-07-23T05:58:16.110Z,202.50
2018-07-23T05:59:16.290Z,208.13
2018-07-23T06:00:16.468Z,213.75
2018-07-23T06:01:16.648Z,219.38
2018-07-23T06:02:16.829Z,219.38
2018-07-23T06:03:17.011Z,219.38
2018-07-23T06:04:17.189Z,225.00
2018-07-23T06:05:17.364Z,230.63
2018-07-23T06:06:17.591Z,230.63
2018-07-23T06:07:17.741Z,236.25
2018-07-23T06:08:17.924Z,241.88
2018-07-23T06:09:18.106Z,247.50
2018-07-23T06:10:18.284Z,253.13
2018-07-23T06:11:18.503Z,270.00
2018-07-23T06:12:18.682Z,298.13
2018-07-23T06:13:18.854Z,331.88
2018-07-23T06:14:19.034Z,354.38
2018-07-23T06:15:19.215Z,365.63
2018-07-23T06:16:19.389Z,371.25
2018-07-23T06:17:19.564Z,382.50
2018-07-23T06:18:19.745Z,388.13
2018-07-23T06:19:20.121Z,399.38
2018-07-23T06:20:20.058Z,405.00
2018-07-23T06:21:20.236Z,410.63
2018-07-23T06:22:20.411Z,427.50
2018-07-23T06:23:20.622Z,433.13
2018-07-23T06:24:20.767Z,444.38
2018-07-23T06:25:21.039Z,455.63
2018-07-23T06:26:21.073Z,472.50
2018-07-23T06:27:21.800Z,478.13
2018-07-23T06:28:21.571Z,495.00
2018-07-23T06:29:21.980Z,506.25
2018-07-23T06:30:22.012Z,523.13
2018-07-23T06:31:21.980Z,540.00
2018-07-23T06:32:22.189Z,556.88
2018-07-23T06:33:22.392Z,579.38
2018-07-23T06:34:22.572Z,590.63
2018-07-23T06:35:26.051Z,618.75
2018-07-23T06:36:22.972Z,641.25
2018-07-23T06:37:23.161Z,663.75
2018-07-23T06:38:23.349Z,691.88
2018-07-23T06:39:23.530Z,714.38
2018-07-23T06:40:23.722Z,765.00
2018-07-23T06:41:24.000Z,810.00
2018-07-23T06:42:24.126Z,860.63
2018-07-23T06:43:24.350Z,916.88
2018-07-23T06:44:24.487Z,984.38
2018-07-23T06:45:24.680Z,1080.00
2018-07-23T06:46:24.860Z,1186.88
2018-07-23T06:47:25.049Z,1293.75
2018-07-23T06:48:25.228Z,1395.00
2018-07-23T06:49:25.416Z,1456.88
2018-07-23T06:50:25.612Z,1518.75
2018-07-23T06:51:25.797Z,1513.13
2018-07-23T06:52:25.978Z,1575.00
2018-07-23T06:53:26.165Z,1743.75
2018-07-23T06:54:26.369Z,1828.13
2018-07-23T06:55:26.545Z,1749.38
2018-07-23T06:56:26.723Z,1625.63
2018-07-23T06:57:26.935Z,1490.63
2018-07-23T06:58:27.097Z,1361.25
2018-07-23T06:59:27.281Z,1248.75
2018-07-23T07:00:27.512Z,1170.00
2018-07-23T07:01:27.676Z,1130.63
2018-07-23T07:02:27.873Z,1108.13
2018-07-23T07:03:28.054Z,1080.00
2018-07-23T07:04:28.242Z,1063.13
2018-07-23T07:05:28.428Z,1029.38
2018-07-23T07:06:28.814Z,1012.50
2018-07-23T07:07:28.771Z,990.00
2018-07-23T07:08:28.962Z,973.13
2018-07-23T07:09:29.200Z,967.50
2018-07-23T07:10:29.396Z,973.13
2018-07-23T07:11:29.581Z,950.63
2018-07-23T07:12:29.766Z,950.63
2018-07-23T07:13:30.062Z,945.00
2018-07-23T07:14:30.160Z,939.38
2018-07-23T07:15:30.398Z,933.75
2018-07-23T07:16:30.590Z,928.13
2018-07-23T07:17:30.775Z,939.38
2018-07-23T07:18:30.958Z,939.38
2018-07-23T07:19:31.155Z,945.00
2018-07-23T07:20:31.368Z,945.00
2018-07-23T07:21:31.559Z,956.25
2018-07-23T07:22:31.752Z,973.13
2018-07-23T07:23:31.941Z,995.63
2018-07-23T07:24:32.138Z,1001.25
2018-07-23T07:25:32.410Z,1006.88
2018-07-23T07:26:32.531Z,1035.00
2018-07-23T07:27:32.717Z,1057.50
2018-07-23T07:28:32.923Z,1074.38
2018-07-23T07:29:33.100Z,1085.63
2018-07-23T07:30:33.285Z,1108.13
2018-07-23T07:31:33.484Z,1136.25
2018-07-23T07:32:33.665Z,1158.75
2018-07-23T07:33:33.856Z,1192.50
2018-07-23T07:34:34.049Z,1209.38
2018-07-23T07:35:34.236Z,1220.63
2018-07-23T07:36:34.425Z,1226.25
2018-07-23T07:37:34.626Z,1231.88
2018-07-23T07:38:34.825Z,1237.50
2018-07-23T07:39:35.011Z,1271.25
2018-07-23T07:40:35.195Z,1299.38
2018-07-23T07:41:35.416Z,1310.63
2018-07-23T07:42:35.603Z,1327.50
2018-07-23T07:43:35.800Z,1350.00
2018-07-23T07:44:35.993Z,1366.88
2018-07-23T07:45:36.187Z,1389.38
2018-07-23T07:46:36.487Z,1417.50
2018-07-23T07:47:36.551Z,1434.38
2018-07-23T07:48:36.742Z,1451.25
2018-07-23T07:49:36.929Z,1485.00
2018-07-23T07:50:37.156Z,1490.63
2018-07-23T07:51:37.337Z,1507.50
2018-07-23T07:52:37.536Z,1535.63
2018-07-23T07:53:37.727Z,1546.88
2018-07-23T07:54:37.920Z,1563.75
2018-07-23T07:55:38.105Z,1569.38
2018-07-23T07:56:38.294Z,1591.88
2018-07-23T07:57:38.577Z,1603.13
2018-07-23T07:58:38.713Z,1620.00
2018-07-23T07:59:40.221Z,1631.25
2018-07-23T08:00:39.062Z,1631.25
2018-07-23T08:01:39.248Z,1642.50
2018-07-23T08:02:39.441Z,1653.75
2018-07-23T08:03:39.676Z,1665.00
2018-07-23T08:04:39.828Z,1693.13
2018-07-23T08:05:40.107Z,1676.25
2018-07-23T08:06:40.211Z,1676.25
2018-07-23T08:07:40.426Z,1659.38
2018-07-23T08:08:40.618Z,1659.38
2018-07-23T08:09:40.820Z,1642.50
2018-07-23T08:10:41.081Z,1636.88
2018-07-23T08:11:41.231Z,1631.25
2018-07-23T08:12:41.336Z,1614.38
2018-07-23T08:13:41.523Z,1608.75
2018-07-23T08:14:41.719Z,1597.50
2018-07-23T08:15:41.905Z,1591.88
2018-07-23T08:16:42.099Z,1580.63
2018-07-23T08:17:42.281Z,1575.00
2018-07-23T08:18:42.467Z,1546.88
2018-07-23T08:19:42.663Z,1530.00
2018-07-23T08:20:42.847Z,1524.38
2018-07-23T08:21:43.036Z,1501.88
2018-07-23T08:22:43.231Z,1479.38
2018-07-23T08:23:43.420Z,1451.25
2018-07-23T08:24:43.610Z,1423.13
2018-07-23T08:25:43.809Z,1395.00
2018-07-23T08:26:44.018Z,1395.00
2018-07-23T08:27:44.237Z,1383.75
2018-07-23T08:28:44.385Z,1350.00
2018-07-23T08:29:44.574Z,1338.75
2018-07-23T08:30:44.761Z,1327.50
2018-07-23T08:31:45.093Z,1310.63
2018-07-23T08:32:45.087Z,1333.13
2018-07-23T08:33:45.279Z,1316.25
2018-07-23T08:34:45.474Z,1338.75
2018-07-23T08:35:45.673Z,1327.50
2018-07-23T08:36:45.872Z,1282.50
2018-07-23T08:37:46.065Z,1220.63
2018-07-23T08:38:46.276Z,1226.25
2018-07-23T08:39:46.564Z,1203.75
2018-07-23T08:40:46.717Z,1209.38
2018-07-23T08:41:46.788Z,1220.63
2018-07-23T08:42:46.977Z,1192.50
2018-07-23T08:43:47.176Z,1192.50
2018-07-23T08:44:47.371Z,1164.38
2018-07-23T08:45:47.584Z,1186.88
2018-07-23T08:46:47.773Z,1153.13
2018-07-23T08:47:48.018Z,1141.88
2018-07-23T08:48:48.207Z,1158.75
2018-07-23T08:49:48.394Z,1192.50
2018-07-23T08:50:48.599Z,1203.75
2018-07-23T08:51:48.786Z,1237.50
2018-07-23T08:52:48.972Z,1265.63
2018-07-23T08:53:49.165Z,1293.75
2018-07-23T08:54:49.384Z,1271.25
2018-07-23T08:55:49.545Z,1378.13
2018-07-23T08:56:49.747Z,1350.00
2018-07-23T08:57:49.954Z,1321.88
2018-07-23T08:58:50.472Z,1293.75
2018-07-23T08:59:50.274Z,1276.88
2018-07-23T09:00:50.473Z,1260.00
2018-07-23T09:01:50.663Z,1265.63
2018-07-23T09:02:50.860Z,1293.75
2018-07-23T09:03:51.061Z,1355.63
2018-07-23T09:04:51.331Z,1406.25
2018-07-23T09:05:51.377Z,1445.63
2018-07-23T09:06:51.602Z,1558.13
2018-07-23T09:07:51.827Z,1631.25
2018-07-23T09:08:52.143Z,1535.63
2018-07-23T09:09:52.315Z,1496.25
2018-07-23T09:10:52.470Z,1434.38
2018-07-23T09:11:52.773Z,1372.50
2018-07-23T09:12:52.969Z,1293.75
2018-07-23T09:13:53.021Z,1265.63
2018-07-23T09:14:53.262Z,1068.75
2018-07-23T09:15:53.431Z,1158.75
2018-07-23T09:16:53.634Z,1158.75
2018-07-23T09:17:53.982Z,1096.88
2018-07-23T09:18:54.052Z,1113.75
2018-07-23T09:19:54.273Z,500.63
2018-07-23T09:20:54.541Z,421.88
2018-07-23T09:21:54.653Z,393.75
2018-07-23T09:22:54.779Z,1012.50
2018-07-23T09:23:54.984Z,472.50
2018-07-23T09:24:55.193Z,883.13
2018-07-23T09:25:55.263Z,911.25
2018-07-23T09:26:55.459Z,601.88
2018-07-23T09:27:55.686Z,573.75
2018-07-23T09:28:55.885Z,956.25
2018-07-23T09:29:56.104Z,736.88
2018-07-23T09:30:56.345Z,483.75
2018-07-23T09:31:56.493Z,427.50
2018-07-23T09:32:56.681Z,410.63
2018-07-23T09:33:57.100Z,376.88
2018-07-23T09:34:57.087Z,360.00
2018-07-23T09:35:57.267Z,360.00
2018-07-23T09:36:57.471Z,607.50
2018-07-23T09:37:57.740Z,950.63
2018-07-23T09:38:57.929Z,950.63
2018-07-23T09:39:58.147Z,725.63
2018-07-23T09:40:58.320Z,759.38
2018-07-23T09:41:59.368Z,450.00
2018-07-23T09:42:58.695Z,399.38
2018-07-23T09:43:58.937Z,905.63
2018-07-23T09:44:59.452Z,916.88
2018-07-23T09:45:59.290Z,900.00
2018-07-23T09:46:59.618Z,438.75
2018-07-23T09:47:59.771Z,433.13
2018-07-23T09:48:59.900Z,405.00
2018-07-23T09:50:00.114Z,371.25
2018-07-23T09:51:00.296Z,354.38
2018-07-23T09:52:00.476Z,348.75
2018-07-23T09:53:00.662Z,326.25
2018-07-23T09:54:00.912Z,309.38
2018-07-23T09:55:00.985Z,326.25
2018-07-23T09:56:01.174Z,405.00
2018-07-23T09:57:01.360Z,303.75
2018-07-23T09:58:01.550Z,388.13
2018-07-23T09:59:01.743Z,405.00
2018-07-23T10:00:01.977Z,348.75
2018-07-23T10:01:02.140Z,315.00
2018-07-23T10:02:02.471Z,331.88
2018-07-23T10:03:02.631Z,815.63
2018-07-23T10:04:02.737Z,337.50
2018-07-23T10:05:02.920Z,320.63
2018-07-23T10:06:03.121Z,354.38
2018-07-23T10:07:03.299Z,888.75
2018-07-23T10:08:03.493Z,736.88
2018-07-23T10:09:03.700Z,405.00
2018-07-23T10:10:03.885Z,855.00
2018-07-23T10:11:04.186Z,928.13
2018-07-23T10:12:04.271Z,905.63
2018-07-23T10:13:04.474Z,922.50
2018-07-23T10:14:04.657Z,871.88
2018-07-23T10:15:04.843Z,770.63
2018-07-23T10:16:05.029Z,669.38
2018-07-23T10:17:05.216Z,393.75
2018-07-23T10:18:05.412Z,360.00
2018-07-23T10:19:05.602Z,331.88
2018-07-23T10:20:05.785Z,320.63
2018-07-23T10:21:05.974Z,517.50
2018-07-23T10:22:06.216Z,410.63
2018-07-23T10:23:06.390Z,511.88
2018-07-23T10:24:06.575Z,444.38
2018-07-23T10:25:06.764Z,523.13
2018-07-23T10:26:06.957Z,545.63
2018-07-23T10:27:07.156Z,540.00
2018-07-23T10:28:07.367Z,523.13
2018-07-23T10:29:07.572Z,495.00
2018-07-23T10:30:08.092Z,399.38
2018-07-23T10:31:07.877Z,343.13
2018-07-23T10:32:08.066Z,354.38
2018-07-23T10:33:08.269Z,478.13
2018-07-23T10:34:08.458Z,416.25
2018-07-23T10:35:08.734Z,348.75
2018-07-23T10:36:08.835Z,354.38
2018-07-23T10:37:09.027Z,438.75
2018-07-23T10:38:09.215Z,348.75
2018-07-23T10:39:09.408Z,393.75
2018-07-23T10:40:09.610Z,399.38
2018-07-23T10:41:09.840Z,393.75
2018-07-23T10:42:09.984Z,388.13
2018-07-23T10:43:10.165Z,360.00
2018-07-23T10:44:10.365Z,337.50
2018-07-23T10:45:10.546Z,315.00
2018-07-23T10:46:11.943Z,309.38
2018-07-23T10:47:10.912Z,303.75
2018-07-23T10:48:11.159Z,292.50
2018-07-23T10:49:11.340Z,275.63
2018-07-23T10:50:11.535Z,309.38
2018-07-23T10:51:11.731Z,320.63
2018-07-23T10:52:11.909Z,326.25
2018-07-23T10:53:12.100Z,331.88
2018-07-23T10:54:12.285Z,337.50
2018-07-23T10:55:12.465Z,331.88
2018-07-23T10:56:12.648Z,337.50
2018-07-23T10:57:12.841Z,337.50
2018-07-23T10:58:13.022Z,337.50
2018-07-23T10:59:13.216Z,337.50
2018-07-23T11:00:13.400Z,326.25
2018-07-23T11:01:13.587Z,315.00
2018-07-23T11:02:13.779Z,303.75
2018-07-23T11:03:13.997Z,275.63
2018-07-23T11:04:14.219Z,264.38
2018-07-23T11:05:14.390Z,264.38
2018-07-23T11:06:14.560Z,247.50
2018-07-23T11:07:14.779Z,253.13
2018-07-23T11:08:14.945Z,253.13
2018-07-23T11:09:15.129Z,258.75
2018-07-23T11:10:15.352Z,258.75
2018-07-23T11:11:15.548Z,264.38
2018-07-23T11:12:15.724Z,281.25
2018-07-23T11:13:15.928Z,281.25
2018-07-23T11:14:16.124Z,309.38
2018-07-23T11:15:16.315Z,303.75
2018-07-23T11:16:16.527Z,309.38
2018-07-23T11:17:16.751Z,315.00
2018-07-23T11:18:16.918Z,315.00
2018-07-23T11:19:17.174Z,275.63
2018-07-23T11:20:17.912Z,258.75
2018-07-23T11:21:17.472Z,247.50
2018-07-23T11:22:17.681Z,270.00
2018-07-23T11:23:17.914Z,270.00
2018-07-23T11:24:18.115Z,275.63
2018-07-23T11:25:39.176Z,275.63
2018-07-23T11:26:18.451Z,270.00
2018-07-23T11:27:18.651Z,258.75
2018-07-23T11:28:19.091Z,258.75
2018-07-23T11:29:18.990Z,258.75
2018-07-23T11:30:19.184Z,253.13
2018-07-23T11:31:21.745Z,247.50
2018-07-23T11:32:19.586Z,236.25
2018-07-23T11:33:19.779Z,230.63
2018-07-23T11:34:20.626Z,230.63
2018-07-23T11:35:21.083Z,230.63
2018-07-23T11:36:21.532Z,230.63
2018-07-23T11:37:22.866Z,230.63
2018-07-23T11:38:20.682Z,230.63
2018-07-23T11:39:20.893Z,230.63
2018-07-23T11:40:22.943Z,230.63
2018-07-23T11:41:22.240Z,230.63
2018-07-23T11:42:21.819Z,225.00
2018-07-23T11:43:21.588Z,225.00
2018-07-23T11:44:21.805Z,225.00
2018-07-23T11:45:23.406Z,225.00
2018-07-23T11:46:24.983Z,225.00
2018-07-23T11:47:22.959Z,225.00
2018-07-23T11:48:22.430Z,225.00
2018-07-23T11:49:22.635Z,225.00
2018-07-23T11:50:22.841Z,225.00
2018-07-23T11:51:23.029Z,225.00
2018-07-23T11:52:23.229Z,219.38
2018-07-23T11:53:23.572Z,219.38
2018-07-23T11:54:23.610Z,213.75
2018-07-23T11:55:25.048Z,208.13
2018-07-23T11:56:26.488Z,208.13
2018-07-23T11:57:25.189Z,202.50
2018-07-23T11:58:26.559Z,202.50
2018-07-23T11:59:25.479Z,208.13
2018-07-23T12:00:26.493Z,208.13
2018-07-23T12:01:26.026Z,208.13
2018-07-23T12:02:26.586Z,208.13
2018-07-23T12:03:25.818Z,208.13
2018-07-23T12:04:26.293Z,180.00
2018-07-23T12:05:26.356Z,191.25
2018-07-23T12:06:27.054Z,196.88
2018-07-23T12:07:26.063Z,174.38
2018-07-23T12:08:26.382Z,168.75
2018-07-23T12:09:26.917Z,185.63
2018-07-23T12:10:26.584Z,180.00
2018-07-23T12:11:26.539Z,151.88
2018-07-23T12:12:26.737Z,146.25
2018-07-23T12:13:27.689Z,146.25
2018-07-23T12:14:27.759Z,135.00
2018-07-23T12:15:27.422Z,123.75
2018-07-23T12:16:27.742Z,118.13
2018-07-23T12:17:28.971Z,118.13
2018-07-23T12:18:28.369Z,135.00
2018-07-23T12:19:28.072Z,146.25
2018-07-23T12:20:28.493Z,151.88
2018-07-23T12:21:28.463Z,163.13
2018-07-23T12:22:28.680Z,168.75
2018-07-23T12:23:28.869Z,174.38
2018-07-23T12:24:29.055Z,180.00
2018-07-23T12:25:29.232Z,191.25
2018-07-23T12:26:29.470Z,196.88
2018-07-23T12:27:29.539Z,208.13
2018-07-23T12:28:29.770Z,219.38
2018-07-23T12:29:29.835Z,219.38
2018-07-23T12:30:30.069Z,219.38
2018-07-23T12:31:30.259Z,213.75
2018-07-23T12:32:30.579Z,208.13
2018-07-23T12:33:31.056Z,191.25
2018-07-23T12:34:30.804Z,180.00
2018-07-23T12:35:30.998Z,185.63
2018-07-23T12:36:31.161Z,191.25
2018-07-23T12:37:31.348Z,196.88
2018-07-23T12:38:31.535Z,168.75
2018-07-23T12:39:31.732Z,151.88
2018-07-23T12:40:31.893Z,146.25
2018-07-23T12:41:32.078Z,146.25
2018-07-23T12:42:32.259Z,146.25